sensor_id;sensor_type;location;lat;lon;timestamp;pressure;altitude;pressure_sealevel;temperature;humidity
61524;BME280;47393;38.758;-9.164;2022-10-15T00:00:25;100697.28;;;15.97;100.00
61524;BME280;47393;38.758;-9.164;2022-10-15T00:02:29;100692.38;;;16.02;100.00
61524;BME280;47393;38.758;-9.164;2022-10-15T00:04:29;100685.69;;;15.98;100.00
61524;BME280;47393;38.758;-9.164;2022-10-15T00:06:30;100691.06;;;15.88;100.00
61524;BME280;47393;38.758;-9.164;2022-10-15T00:08:34;100688.75;;;15.75;100.00
61524;BME280;47393;38.758;-9.164;2022-10-15T00:10:35;100689.59;;;15.75;100.00
61524;BME280;47393;38.758;-9.164;2022-10-15T00:12:39;100680.06;;;15.83;100.00
61524;BME280;47393;38.758;-9.164;2022-10-15T00:14:46;100682.19;;;15.79;100.00
61524;BME280;47393;38.758;-9.164;2022-10-15T00:16:52;100681.78;;;15.74;100.00
61524;BME280;47393;38.758;-9.164;2022-10-15T00:18:58;100677.84;;;15.78;100.00
61524;BME280;47393;38.758;-9.164;2022-10-15T00:21:08;100672.53;;;15.78;100.00
61524;BME280;47393;38.758;-9.164;2022-10-15T00:23:15;100670.25;;;15.65;100.00
61524;BME280;47393;38.758;-9.164;2022-10-15T00:25:21;100671.19;;;15.56;100.00
61524;BME280;47393;38.758;-9.164;2022-10-15T00:27:29;100671.59;;;15.51;100.00
61524;BME280;47393;38.758;-9.164;2022-10-15T00:29:32;100675.00;;;15.44;100.00
61524;BME280;47393;38.758;-9.164;2022-10-15T00:31:39;100677.50;;;15.45;100.00
61524;BME280;47393;38.758;-9.164;2022-10-15T00:33:54;100671.28;;;15.36;100.00
61524;BME280;47393;38.758;-9.164;2022-10-15T00:36:30;100669.16;;;15.40;100.00
61524;BME280;47393;38.758;-9.164;2022-10-15T00:38:28;100674.88;;;15.17;100.00
61524;BME280;47393;38.758;-9.164;2022-10-15T00:40:29;100673.06;;;15.18;100.00
61524;BME280;47393;38.758;-9.164;2022-10-15T00:42:35;100670.94;;;15.21;100.00
61524;BME280;47393;38.758;-9.164;2022-10-15T00:44:54;100662.94;;;15.31;100.00
61524;BME280;47393;38.758;-9.164;2022-10-15T00:49:42;100659.56;;;15.39;100.00
61524;BME280;47393;38.758;-9.164;2022-10-15T00:51:23;100654.59;;;15.72;100.00
61524;BME280;47393;38.758;-9.164;2022-10-15T00:53:36;100659.03;;;15.71;100.00
61524;BME280;47393;38.758;-9.164;2022-10-15T00:55:40;100650.66;;;15.94;100.00
61524;BME280;47393;38.758;-9.164;2022-10-15T00:57:43;100658.22;;;16.07;100.00
61524;BME280;47393;38.758;-9.164;2022-10-15T00:59:50;100650.50;;;16.14;100.00
61524;BME280;47393;38.758;-9.164;2022-10-15T01:01:54;100646.16;;;16.13;100.00
61524;BME280;47393;38.758;-9.164;2022-10-15T01:03:57;100650.97;;;16.09;100.00
61524;BME280;47393;38.758;-9.164;2022-10-15T01:05:58;100644.97;;;16.07;100.00
61524;BME280;47393;38.758;-9.164;2022-10-15T01:07:59;100640.78;;;16.22;100.00
61524;BME280;47393;38.758;-9.164;2022-10-15T01:10:04;100641.00;;;16.29;100.00
61524;BME280;47393;38.758;-9.164;2022-10-15T01:12:05;100637.56;;;16.19;100.00
61524;BME280;47393;38.758;-9.164;2022-10-15T01:14:14;100641.56;;;16.15;100.00
61524;BME280;47393;38.758;-9.164;2022-10-15T01:18:28;100636.25;;;16.15;100.00
61524;BME280;47393;38.758;-9.164;2022-10-15T01:20:53;100636.19;;;16.06;100.00
61524;BME280;47393;38.758;-9.164;2022-10-15T01:23:12;100643.69;;;15.93;100.00
61524;BME280;47393;38.758;-9.164;2022-10-15T01:30:11;100619.22;;;15.63;100.00
61524;BME280;47393;38.758;-9.164;2022-10-15T01:32:34;100632.75;;;15.60;100.00
61524;BME280;47393;38.758;-9.164;2022-10-15T01:34:59;100626.72;;;15.68;100.00
61524;BME280;47393;38.758;-9.164;2022-10-15T01:39:31;100630.81;;;15.80;100.00
61524;BME280;47393;38.758;-9.164;2022-10-15T01:41:51;100625.78;;;15.77;100.00
61524;BME280;47393;38.758;-9.164;2022-10-15T01:46:40;100611.69;;;15.58;100.00
61524;BME280;47393;38.758;-9.164;2022-10-15T01:48:48;100618.81;;;15.58;100.00
61524;BME280;47393;38.758;-9.164;2022-10-15T01:51:15;100614.66;;;15.55;100.00
61524;BME280;47393;38.758;-9.164;2022-10-15T01:53:18;100610.94;;;15.66;100.00
61524;BME280;47393;38.758;-9.164;2022-10-15T01:55:31;100607.59;;;15.64;100.00
61524;BME280;47393;38.758;-9.164;2022-10-15T01:57:42;100607.22;;;15.77;100.00
61524;BME280;47393;38.758;-9.164;2022-10-15T01:59:53;100604.13;;;15.64;100.00
61524;BME280;47393;38.758;-9.164;2022-10-15T02:02:00;100606.31;;;15.68;100.00
61524;BME280;47393;38.758;-9.164;2022-10-15T02:04:01;100602.75;;;15.60;100.00
61524;BME280;47393;38.758;-9.164;2022-10-15T02:06:05;100604.19;;;15.54;100.00
61524;BME280;47393;38.758;-9.164;2022-10-15T02:08:15;100595.88;;;15.49;100.00
61524;BME280;47393;38.758;-9.164;2022-10-15T02:16:56;100593.53;;;15.64;100.00
61524;BME280;47393;38.758;-9.164;2022-10-15T02:19:20;100589.03;;;15.64;100.00
61524;BME280;47393;38.758;-9.164;2022-10-15T02:21:34;100584.97;;;15.52;100.00
61524;BME280;47393;38.758;-9.164;2022-10-15T02:23:43;100575.13;;;15.62;100.00
61524;BME280;47393;38.758;-9.164;2022-10-15T02:25:49;100570.03;;;15.69;100.00
61524;BME280;47393;38.758;-9.164;2022-10-15T02:28:02;100571.38;;;15.73;100.00
61524;BME280;47393;38.758;-9.164;2022-10-15T02:30:04;100578.81;;;15.87;100.00
61524;BME280;47393;38.758;-9.164;2022-10-15T02:32:10;100570.09;;;15.77;100.00
61524;BME280;47393;38.758;-9.164;2022-10-15T02:34:12;100572.38;;;15.72;100.00
61524;BME280;47393;38.758;-9.164;2022-10-15T02:36:18;100574.81;;;15.65;100.00
61524;BME280;47393;38.758;-9.164;2022-10-15T02:38:19;100572.63;;;15.61;100.00
61524;BME280;47393;38.758;-9.164;2022-10-15T02:40:24;100573.06;;;15.74;100.00
61524;BME280;47393;38.758;-9.164;2022-10-15T02:42:30;100566.69;;;15.67;100.00
61524;BME280;47393;38.758;-9.164;2022-10-15T02:44:33;100557.75;;;15.68;100.00
61524;BME280;47393;38.758;-9.164;2022-10-15T02:46:35;100549.81;;;15.68;100.00
61524;BME280;47393;38.758;-9.164;2022-10-15T02:48:51;100552.22;;;15.61;100.00
61524;BME280;47393;38.758;-9.164;2022-10-15T02:51:01;100546.63;;;15.64;100.00
61524;BME280;47393;38.758;-9.164;2022-10-15T02:53:05;100534.38;;;15.63;100.00
61524;BME280;47393;38.758;-9.164;2022-10-15T02:55:17;100526.53;;;15.62;100.00
61524;BME280;47393;38.758;-9.164;2022-10-15T02:57:30;100529.19;;;15.62;100.00
61524;BME280;47393;38.758;-9.164;2022-10-15T02:59:42;100532.38;;;15.65;100.00
61524;BME280;47393;38.758;-9.164;2022-10-15T03:01:56;100531.19;;;15.60;100.00
61524;BME280;47393;38.758;-9.164;2022-10-15T03:04:01;100529.75;;;15.47;100.00
61524;BME280;47393;38.758;-9.164;2022-10-15T03:06:03;100535.81;;;15.39;100.00
61524;BME280;47393;38.758;-9.164;2022-10-15T03:08:09;100529.00;;;15.37;100.00
61524;BME280;47393;38.758;-9.164;2022-10-15T03:10:20;100528.16;;;15.36;100.00
61524;BME280;47393;38.758;-9.164;2022-10-15T03:12:26;100534.13;;;15.38;100.00
61524;BME280;47393;38.758;-9.164;2022-10-15T03:14:28;100529.75;;;15.47;100.00
61524;BME280;47393;38.758;-9.164;2022-10-15T03:16:31;100529.16;;;15.53;100.00
61524;BME280;47393;38.758;-9.164;2022-10-15T03:18:37;100525.28;;;15.48;100.00
61524;BME280;47393;38.758;-9.164;2022-10-15T03:20:38;100530.97;;;15.35;100.00
61524;BME280;47393;38.758;-9.164;2022-10-15T03:22:52;100523.84;;;15.35;100.00
61524;BME280;47393;38.758;-9.164;2022-10-15T03:24:55;100530.59;;;15.30;100.00
61524;BME280;47393;38.758;-9.164;2022-10-15T03:27:31;100528.78;;;15.30;100.00
61524;BME280;47393;38.758;-9.164;2022-10-15T03:29:32;100527.78;;;15.13;100.00
61524;BME280;47393;38.758;-9.164;2022-10-15T03:31:39;100527.50;;;15.16;100.00
61524;BME280;47393;38.758;-9.164;2022-10-15T03:33:46;100525.06;;;15.23;100.00
61524;BME280;47393;38.758;-9.164;2022-10-15T03:35:53;100520.44;;;15.25;100.00
61524;BME280;47393;38.758;-9.164;2022-10-15T03:37:55;100529.06;;;15.27;100.00
61524;BME280;47393;38.758;-9.164;2022-10-15T03:39:56;100519.84;;;15.13;100.00
61524;BME280;47393;38.758;-9.164;2022-10-15T03:42:01;100524.28;;;15.13;100.00
61524;BME280;47393;38.758;-9.164;2022-10-15T03:44:09;100518.25;;;15.20;100.00
61524;BME280;47393;38.758;-9.164;2022-10-15T03:46:14;100522.47;;;15.31;100.00
61524;BME280;47393;38.758;-9.164;2022-10-15T03:48:17;100516.06;;;15.16;100.00
61524;BME280;47393;38.758;-9.164;2022-10-15T03:50:27;100520.00;;;15.12;100.00
61524;BME280;47393;38.758;-9.164;2022-10-15T03:52:37;100515.69;;;15.11;100.00
61524;BME280;47393;38.758;-9.164;2022-10-15T03:54:49;100515.81;;;14.91;100.00
61524;BME280;47393;38.758;-9.164;2022-10-15T03:56:53;100517.78;;;14.89;100.00
61524;BME280;47393;38.758;-9.164;2022-10-15T03:59:19;100518.53;;;14.99;100.00
61524;BME280;47393;38.758;-9.164;2022-10-15T04:01:32;100519.22;;;15.01;100.00
61524;BME280;47393;38.758;-9.164;2022-10-15T04:03:56;100521.03;;;15.01;100.00
61524;BME280;47393;38.758;-9.164;2022-10-15T04:05:59;100521.13;;;15.09;100.00
61524;BME280;47393;38.758;-9.164;2022-10-15T04:08:02;100525.72;;;15.07;100.00
61524;BME280;47393;38.758;-9.164;2022-10-15T04:10:07;100517.03;;;14.97;100.00
61524;BME280;47393;38.758;-9.164;2022-10-15T04:12:11;100512.53;;;14.79;100.00
61524;BME280;47393;38.758;-9.164;2022-10-15T04:14:12;100519.72;;;14.69;100.00
61524;BME280;47393;38.758;-9.164;2022-10-15T04:16:13;100516.00;;;14.62;100.00
61524;BME280;47393;38.758;-9.164;2022-10-15T04:18:14;100514.88;;;14.54;100.00
61524;BME280;47393;38.758;-9.164;2022-10-15T04:31:12;100528.50;;;14.32;100.00
61524;BME280;47393;38.758;-9.164;2022-10-15T04:36:38;100524.63;;;14.54;100.00
61524;BME280;47393;38.758;-9.164;2022-10-15T04:38:45;100526.69;;;14.60;100.00
61524;BME280;47393;38.758;-9.164;2022-10-15T04:41:00;100529.59;;;14.67;100.00
61524;BME280;47393;38.758;-9.164;2022-10-15T04:46:13;100527.56;;;14.51;100.00
61524;BME280;47393;38.758;-9.164;2022-10-15T04:48:14;100527.25;;;14.54;100.00
61524;BME280;47393;38.758;-9.164;2022-10-15T04:50:31;100517.00;;;14.41;100.00
61524;BME280;47393;38.758;-9.164;2022-10-15T04:53:20;100530.94;;;14.43;100.00
61524;BME280;47393;38.758;-9.164;2022-10-15T04:55:31;100530.44;;;14.30;100.00
61524;BME280;47393;38.758;-9.164;2022-10-15T04:57:52;100525.41;;;14.36;100.00
61524;BME280;47393;38.758;-9.164;2022-10-15T04:59:59;100526.75;;;14.50;100.00
61524;BME280;47393;38.758;-9.164;2022-10-15T05:02:19;100519.63;;;14.51;100.00
61524;BME280;47393;38.758;-9.164;2022-10-15T05:04:27;100517.31;;;14.38;100.00
61524;BME280;47393;38.758;-9.164;2022-10-15T05:06:31;100515.09;;;14.33;100.00
61524;BME280;47393;38.758;-9.164;2022-10-15T05:08:48;100517.50;;;14.27;100.00
61524;BME280;47393;38.758;-9.164;2022-10-15T05:13:59;100520.91;;;14.09;100.00
61524;BME280;47393;38.758;-9.164;2022-10-15T05:19:29;100522.09;;;14.25;100.00
61524;BME280;47393;38.758;-9.164;2022-10-15T05:21:35;100523.78;;;14.26;100.00
61524;BME280;47393;38.758;-9.164;2022-10-15T05:23:46;100519.31;;;14.26;100.00
61524;BME280;47393;38.758;-9.164;2022-10-15T05:25:58;100518.31;;;14.37;100.00
61524;BME280;47393;38.758;-9.164;2022-10-15T05:30:39;100515.06;;;14.43;100.00
61524;BME280;47393;38.758;-9.164;2022-10-15T05:32:50;100519.66;;;14.41;100.00
61524;BME280;47393;38.758;-9.164;2022-10-15T05:35:14;100517.00;;;14.41;100.00
61524;BME280;47393;38.758;-9.164;2022-10-15T05:40:02;100515.44;;;14.48;100.00
61524;BME280;47393;38.758;-9.164;2022-10-15T05:44:35;100509.06;;;14.41;100.00
61524;BME280;47393;38.758;-9.164;2022-10-15T05:46:38;100502.22;;;14.48;100.00
61524;BME280;47393;38.758;-9.164;2022-10-15T05:54:27;100521.50;;;14.31;100.00
61524;BME280;47393;38.758;-9.164;2022-10-15T05:56:30;100517.09;;;14.31;100.00
61524;BME280;47393;38.758;-9.164;2022-10-15T05:58:44;100516.19;;;14.41;100.00
61524;BME280;47393;38.758;-9.164;2022-10-15T06:00:44;100513.84;;;14.38;100.00
61524;BME280;47393;38.758;-9.164;2022-10-15T06:03:31;100514.22;;;14.43;100.00
61524;BME280;47393;38.758;-9.164;2022-10-15T06:05:41;100513.28;;;14.34;100.00
61524;BME280;47393;38.758;-9.164;2022-10-15T06:08:00;100527.13;;;14.18;100.00
61524;BME280;47393;38.758;-9.164;2022-10-15T06:10:36;100522.97;;;14.15;100.00
61524;BME280;47393;38.758;-9.164;2022-10-15T06:13:22;100518.53;;;14.06;100.00
61524;BME280;47393;38.758;-9.164;2022-10-15T06:15:53;100519.13;;;14.00;100.00
61524;BME280;47393;38.758;-9.164;2022-10-15T06:26:00;100520.00;;;13.81;100.00
61524;BME280;47393;38.758;-9.164;2022-10-15T06:28:01;100511.09;;;13.72;100.00
61524;BME280;47393;38.758;-9.164;2022-10-15T06:30:31;100509.56;;;13.70;100.00
61524;BME280;47393;38.758;-9.164;2022-10-15T06:32:50;100511.69;;;13.66;100.00
61524;BME280;47393;38.758;-9.164;2022-10-15T06:34:51;100514.75;;;13.71;100.00
61524;BME280;47393;38.758;-9.164;2022-10-15T06:40:00;100509.16;;;13.84;100.00
61524;BME280;47393;38.758;-9.164;2022-10-15T06:45:22;100519.03;;;13.72;100.00
61524;BME280;47393;38.758;-9.164;2022-10-15T06:47:36;100510.25;;;13.81;100.00
61524;BME280;47393;38.758;-9.164;2022-10-15T06:49:37;100507.19;;;13.86;100.00
61524;BME280;47393;38.758;-9.164;2022-10-15T06:54:48;100513.56;;;13.93;100.00
61524;BME280;47393;38.758;-9.164;2022-10-15T06:57:55;100511.66;;;14.23;100.00
61524;BME280;47393;38.758;-9.164;2022-10-15T07:07:14;100513.63;;;15.22;100.00
61524;BME280;47393;38.758;-9.164;2022-10-15T07:09:04;100509.88;;;15.69;100.00
61524;BME280;47393;38.758;-9.164;2022-10-15T07:14:25;100509.41;;;17.28;100.00
61524;BME280;47393;38.758;-9.164;2022-10-15T07:19:12;100507.44;;;19.07;100.00
61524;BME280;47393;38.758;-9.164;2022-10-15T07:21:16;100517.75;;;19.71;100.00
61524;BME280;47393;38.758;-9.164;2022-10-15T07:23:17;100522.88;;;20.41;93.23
61524;BME280;47393;38.758;-9.164;2022-10-15T07:28:22;100528.13;;;20.49;85.78
61524;BME280;47393;38.758;-9.164;2022-10-15T07:30:23;100526.06;;;20.66;84.15
61524;BME280;47393;38.758;-9.164;2022-10-15T07:32:30;100524.38;;;21.38;82.60
61524;BME280;47393;38.758;-9.164;2022-10-15T07:34:49;100533.22;;;21.60;79.19
61524;BME280;47393;38.758;-9.164;2022-10-15T07:49:56;100547.66;;;25.17;62.66
61524;BME280;47393;38.758;-9.164;2022-10-15T07:54:59;100560.91;;;26.27;57.92
61524;BME280;47393;38.758;-9.164;2022-10-15T07:57:09;100560.50;;;26.04;58.10
61524;BME280;47393;38.758;-9.164;2022-10-15T07:59:10;100557.00;;;26.22;57.95
61524;BME280;47393;38.758;-9.164;2022-10-15T08:03:41;100559.69;;;27.08;55.54
61524;BME280;47393;38.758;-9.164;2022-10-15T08:06:12;100557.84;;;27.63;54.32
61524;BME280;47393;38.758;-9.164;2022-10-15T08:08:22;100557.16;;;28.03;52.65
61524;BME280;47393;38.758;-9.164;2022-10-15T08:10:26;100554.41;;;28.27;51.64
61524;BME280;47393;38.758;-9.164;2022-10-15T08:12:33;100557.13;;;28.27;50.80
61524;BME280;47393;38.758;-9.164;2022-10-15T08:14:55;100560.53;;;27.75;53.25
61524;BME280;47393;38.758;-9.164;2022-10-15T08:17:09;100561.31;;;28.46;50.72
61524;BME280;47393;38.758;-9.164;2022-10-15T08:19:13;100562.50;;;28.51;51.31
61524;BME280;47393;38.758;-9.164;2022-10-15T08:21:19;100556.59;;;28.94;48.95
61524;BME280;47393;38.758;-9.164;2022-10-15T08:23:32;100562.06;;;28.30;50.31
61524;BME280;47393;38.758;-9.164;2022-10-15T08:25:34;100566.63;;;28.29;50.50
61524;BME280;47393;38.758;-9.164;2022-10-15T08:27:38;100566.41;;;27.84;52.88
61524;BME280;47393;38.758;-9.164;2022-10-15T08:29:42;100564.75;;;27.59;52.72
61524;BME280;47393;38.758;-9.164;2022-10-15T08:34:58;100567.84;;;27.62;51.71
61524;BME280;47393;38.758;-9.164;2022-10-15T08:37:57;100565.81;;;26.11;56.55
61524;BME280;47393;38.758;-9.164;2022-10-15T08:55:15;100576.97;;;27.19;52.69
61524;BME280;47393;38.758;-9.164;2022-10-15T08:57:29;100588.38;;;26.54;53.90
61524;BME280;47393;38.758;-9.164;2022-10-15T08:59:44;100579.78;;;27.13;54.03
61524;BME280;47393;38.758;-9.164;2022-10-15T09:14:57;100592.31;;;29.54;43.87
61524;BME280;47393;38.758;-9.164;2022-10-15T09:19:23;100599.06;;;29.34;43.97
61524;BME280;47393;38.758;-9.164;2022-10-15T09:22:02;100594.97;;;29.83;42.49
61524;BME280;47393;38.758;-9.164;2022-10-15T09:24:22;100592.38;;;27.31;48.79
61524;BME280;47393;38.758;-9.164;2022-10-15T09:40:04;100580.72;;;31.53;39.75
61524;BME280;47393;38.758;-9.164;2022-10-15T09:47:39;100595.34;;;28.07;45.54
61524;BME280;47393;38.758;-9.164;2022-10-15T09:49:55;100586.47;;;28.59;45.39
61524;BME280;47393;38.758;-9.164;2022-10-15T09:59:28;100598.72;;;31.97;37.85
61524;BME280;47393;38.758;-9.164;2022-10-15T10:04:23;100585.34;;;33.11;35.03
61524;BME280;47393;38.758;-9.164;2022-10-15T10:06:36;100591.94;;;32.52;35.00
61524;BME280;47393;38.758;-9.164;2022-10-15T10:09:00;100590.78;;;32.33;35.21
61524;BME280;47393;38.758;-9.164;2022-10-15T10:11:54;100583.63;;;30.42;39.17
61524;BME280;47393;38.758;-9.164;2022-10-15T10:14:01;100582.16;;;30.17;39.08
61524;BME280;47393;38.758;-9.164;2022-10-15T10:16:19;100584.13;;;29.83;41.31
61524;BME280;47393;38.758;-9.164;2022-10-15T10:33:00;100588.59;;;33.19;32.66
61524;BME280;47393;38.758;-9.164;2022-10-15T10:35:06;100594.97;;;32.56;33.46
61524;BME280;47393;38.758;-9.164;2022-10-15T10:37:28;100596.13;;;32.75;33.62
61524;BME280;47393;38.758;-9.164;2022-10-15T10:40:39;100591.25;;;32.19;34.52
61524;BME280;47393;38.758;-9.164;2022-10-15T10:48:39;100575.50;;;33.05;33.65
61524;BME280;47393;38.758;-9.164;2022-10-15T10:59:33;100579.22;;;35.38;29.00
61524;BME280;47393;38.758;-9.164;2022-10-15T11:02:25;100576.09;;;35.10;29.42
61524;BME280;47393;38.758;-9.164;2022-10-15T11:04:54;100577.66;;;35.22;29.36
61524;BME280;47393;38.758;-9.164;2022-10-15T11:19:39;100569.81;;;33.58;31.63
61524;BME280;47393;38.758;-9.164;2022-10-15T11:40:02;100569.28;;;33.31;31.90
61524;BME280;47393;38.758;-9.164;2022-10-15T12:07:37;100539.56;;;34.51;29.96
61524;BME280;47393;38.758;-9.164;2022-10-15T12:09:59;100539.53;;;33.86;31.06
61524;BME280;47393;38.758;-9.164;2022-10-15T12:12:30;100549.34;;;33.09;32.23
61524;BME280;47393;38.758;-9.164;2022-10-15T12:19:19;100540.41;;;32.25;34.13
61524;BME280;47393;38.758;-9.164;2022-10-15T12:22:00;100539.31;;;33.36;32.49
61524;BME280;47393;38.758;-9.164;2022-10-15T12:27:03;100526.63;;;34.12;30.93
61524;BME280;47393;38.758;-9.164;2022-10-15T12:29:38;100525.91;;;32.77;32.77
61524;BME280;47393;38.758;-9.164;2022-10-15T12:31:53;100521.25;;;32.04;33.68
61524;BME280;47393;38.758;-9.164;2022-10-15T12:34:32;100517.31;;;32.33;33.97
61524;BME280;47393;38.758;-9.164;2022-10-15T12:36:41;100500.28;;;32.00;34.03
61524;BME280;47393;38.758;-9.164;2022-10-15T12:39:01;100505.47;;;32.70;33.30
61524;BME280;47393;38.758;-9.164;2022-10-15T12:41:06;100501.00;;;32.48;33.71
61524;BME280;47393;38.758;-9.164;2022-10-15T12:43:28;100502.50;;;33.07;32.66
61524;BME280;47393;38.758;-9.164;2022-10-15T12:45:35;100493.78;;;32.95;32.37
61524;BME280;47393;38.758;-9.164;2022-10-15T13:04:34;100465.00;;;32.15;34.67
61524;BME280;47393;38.758;-9.164;2022-10-15T13:06:44;100465.47;;;31.97;34.75
61524;BME280;47393;38.758;-9.164;2022-10-15T13:11:11;100461.66;;;31.55;35.03
61524;BME280;47393;38.758;-9.164;2022-10-15T13:13:18;100459.78;;;31.55;35.59
61524;BME280;47393;38.758;-9.164;2022-10-15T13:15:22;100456.84;;;31.19;35.82
61524;BME280;47393;38.758;-9.164;2022-10-15T13:17:28;100453.50;;;30.80;36.92
61524;BME280;47393;38.758;-9.164;2022-10-15T13:19:38;100440.34;;;29.95;38.81
61524;BME280;47393;38.758;-9.164;2022-10-15T13:24:43;100444.81;;;29.28;40.25
61524;BME280;47393;38.758;-9.164;2022-10-15T13:27:02;100439.28;;;29.06;40.51
61524;BME280;47393;38.758;-9.164;2022-10-15T13:29:34;100437.38;;;28.72;41.39
61524;BME280;47393;38.758;-9.164;2022-10-15T13:31:35;100424.81;;;28.08;42.39
61524;BME280;47393;38.758;-9.164;2022-10-15T13:33:40;100431.66;;;27.99;43.25
61524;BME280;47393;38.758;-9.164;2022-10-15T13:35:41;100429.09;;;27.69;43.70
61524;BME280;47393;38.758;-9.164;2022-10-15T13:37:43;100427.09;;;27.76;43.73
61524;BME280;47393;38.758;-9.164;2022-10-15T13:39:49;100431.41;;;27.89;44.14
61524;BME280;47393;38.758;-9.164;2022-10-15T13:41:50;100429.38;;;27.55;44.71
61524;BME280;47393;38.758;-9.164;2022-10-15T13:43:54;100417.72;;;27.31;45.07
61524;BME280;47393;38.758;-9.164;2022-10-15T13:45:56;100418.28;;;27.33;45.52
61524;BME280;47393;38.758;-9.164;2022-10-15T13:48:00;100408.19;;;27.28;45.09
61524;BME280;47393;38.758;-9.164;2022-10-15T13:55:08;100420.72;;;26.57;47.39
61524;BME280;47393;38.758;-9.164;2022-10-15T13:57:14;100418.97;;;26.63;46.69
61524;BME280;47393;38.758;-9.164;2022-10-15T13:59:19;100412.44;;;26.10;47.98
61524;BME280;47393;38.758;-9.164;2022-10-15T14:01:21;100397.69;;;25.56;49.88
61524;BME280;47393;38.758;-9.164;2022-10-15T14:03:24;100393.84;;;25.46;49.70
61524;BME280;47393;38.758;-9.164;2022-10-15T14:05:28;100396.41;;;25.59;49.62
61524;BME280;47393;38.758;-9.164;2022-10-15T14:07:29;100389.66;;;25.87;49.08
61524;BME280;47393;38.758;-9.164;2022-10-15T14:11:30;100389.09;;;25.66;49.62
61524;BME280;47393;38.758;-9.164;2022-10-15T14:13:33;100380.78;;;25.49;49.95
61524;BME280;47393;38.758;-9.164;2022-10-15T14:15:41;100380.34;;;24.77;51.55
61524;BME280;47393;38.758;-9.164;2022-10-15T14:17:42;100374.66;;;24.60;52.30
61524;BME280;47393;38.758;-9.164;2022-10-15T14:19:47;100376.31;;;24.61;52.72
61524;BME280;47393;38.758;-9.164;2022-10-15T14:22:14;100375.84;;;24.70;52.90
61524;BME280;47393;38.758;-9.164;2022-10-15T14:26:25;100381.88;;;25.16;51.51
61524;BME280;47393;38.758;-9.164;2022-10-15T14:28:32;100381.72;;;25.11;51.87
61524;BME280;47393;38.758;-9.164;2022-10-15T14:30:34;100379.81;;;24.93;52.36
61524;BME280;47393;38.758;-9.164;2022-10-15T14:32:58;100376.50;;;25.16;52.16
61524;BME280;47393;38.758;-9.164;2022-10-15T14:37:36;100370.56;;;24.50;53.61
61524;BME280;47393;38.758;-9.164;2022-10-15T14:39:37;100378.66;;;24.05;54.97
61524;BME280;47393;38.758;-9.164;2022-10-15T14:41:53;100374.97;;;23.99;54.96
61524;BME280;47393;38.758;-9.164;2022-10-15T14:44:01;100367.34;;;23.90;55.58
61524;BME280;47393;38.758;-9.164;2022-10-15T14:46:25;100364.50;;;23.78;56.23
61524;BME280;47393;38.758;-9.164;2022-10-15T14:48:36;100371.09;;;23.89;56.18
61524;BME280;47393;38.758;-9.164;2022-10-15T14:50:43;100370.59;;;24.12;55.46
61524;BME280;47393;38.758;-9.164;2022-10-15T14:52:49;100364.91;;;24.27;54.82
61524;BME280;47393;38.758;-9.164;2022-10-15T14:56:55;100364.13;;;24.51;53.88
61524;BME280;47393;38.758;-9.164;2022-10-15T14:58:57;100364.13;;;24.51;54.01
61524;BME280;47393;38.758;-9.164;2022-10-15T15:01:02;100363.78;;;24.09;54.69
61524;BME280;47393;38.758;-9.164;2022-10-15T15:03:27;100367.63;;;23.68;56.33
61524;BME280;47393;38.758;-9.164;2022-10-15T15:05:28;100373.44;;;23.52;56.72
61524;BME280;47393;38.758;-9.164;2022-10-15T15:07:29;100363.53;;;23.59;56.50
61524;BME280;47393;38.758;-9.164;2022-10-15T15:09:51;100363.53;;;23.59;56.60
61524;BME280;47393;38.758;-9.164;2022-10-15T15:11:51;100361.81;;;23.78;56.10
61524;BME280;47393;38.758;-9.164;2022-10-15T15:13:52;100366.75;;;23.81;55.88
61524;BME280;47393;38.758;-9.164;2022-10-15T15:15:54;100365.97;;;23.67;56.12
61524;BME280;47393;38.758;-9.164;2022-10-15T15:17:54;100364.31;;;23.66;55.81
61524;BME280;47393;38.758;-9.164;2022-10-15T15:19:56;100363.47;;;23.72;55.58
61524;BME280;47393;38.758;-9.164;2022-10-15T15:21:58;100358.69;;;23.81;55.62
61524;BME280;47393;38.758;-9.164;2022-10-15T15:24:19;100357.31;;;23.65;56.07
61524;BME280;47393;38.758;-9.164;2022-10-15T15:26:20;100359.16;;;23.64;56.04
61524;BME280;47393;38.758;-9.164;2022-10-15T15:28:22;100358.97;;;23.59;55.93
61524;BME280;47393;38.758;-9.164;2022-10-15T15:30:26;100360.66;;;23.47;56.28
61524;BME280;47393;38.758;-9.164;2022-10-15T15:32:27;100360.66;;;23.47;56.22
61524;BME280;47393;38.758;-9.164;2022-10-15T15:34:34;100355.69;;;23.50;55.96
61524;BME280;47393;38.758;-9.164;2022-10-15T15:36:35;100358.84;;;23.34;56.51
61524;BME280;47393;38.758;-9.164;2022-10-15T15:38:36;100356.53;;;23.31;56.47
61524;BME280;47393;38.758;-9.164;2022-10-15T15:40:37;100353.47;;;23.27;56.90
61524;BME280;47393;38.758;-9.164;2022-10-15T15:42:38;100366.69;;;23.15;57.60
61524;BME280;47393;38.758;-9.164;2022-10-15T15:44:39;100364.22;;;23.14;57.43
61524;BME280;47393;38.758;-9.164;2022-10-15T15:46:40;100371.41;;;23.00;57.92
61524;BME280;47393;38.758;-9.164;2022-10-15T15:48:41;100362.53;;;22.79;58.27
61524;BME280;47393;38.758;-9.164;2022-10-15T15:50:43;100358.19;;;22.65;59.00
61524;BME280;47393;38.758;-9.164;2022-10-15T15:52:44;100368.91;;;22.58;59.36
61524;BME280;47393;38.758;-9.164;2022-10-15T15:54:48;100364.16;;;22.47;59.82
61524;BME280;47393;38.758;-9.164;2022-10-15T15:57:09;100365.97;;;22.33;60.34
61524;BME280;47393;38.758;-9.164;2022-10-15T15:59:19;100373.63;;;22.43;60.07
61524;BME280;47393;38.758;-9.164;2022-10-15T16:01:25;100369.03;;;22.30;60.38
61524;BME280;47393;38.758;-9.164;2022-10-15T16:03:28;100370.31;;;22.34;60.32
61524;BME280;47393;38.758;-9.164;2022-10-15T16:05:29;100371.28;;;22.20;60.61
61524;BME280;47393;38.758;-9.164;2022-10-15T16:07:50;100363.41;;;22.11;61.26